createdAt,value
2018-11-05T00:00:38.230Z,93.50
2018-11-05T00:03:09.529Z,93.60
2018-11-05T00:05:40.263Z,93.70
2018-11-05T00:08:11.060Z,93.90
2018-11-05T00:10:41.772Z,94.10
2018-11-05T00:13:12.525Z,94.10
2018-11-05T00:15:43.299Z,94.20
2018-11-05T00:18:14.060Z,94.30
2018-11-05T00:20:44.720Z,94.40
2018-11-05T00:23:15.651Z,94.50
2018-11-05T00:25:46.346Z,94.50
2018-11-05T00:28:17.035Z,94.80
2018-11-05T00:30:47.785Z,94.80
2018-11-05T00:33:18.599Z,94.70
2018-11-05T00:35:49.305Z,94.70
2018-11-05T00:38:20.073Z,94.70
2018-11-05T00:40:50.740Z,94.60
2018-11-05T00:43:21.644Z,94.60
2018-11-05T00:45:52.561Z,94.70
2018-11-05T00:48:23.439Z,94.90
2018-11-05T00:50:54.192Z,94.70
2018-11-05T00:53:24.981Z,94.60
2018-11-05T00:55:55.703Z,94.50
2018-11-05T00:58:26.486Z,94.40
2018-11-05T01:00:57.165Z,94.40
2018-11-05T01:03:34.432Z,94.30
2018-11-05T01:06:08.047Z,94.30
2018-11-05T01:08:38.892Z,94.30
2018-11-05T01:11:09.620Z,94.20
2018-11-05T01:13:40.296Z,94.20
2018-11-05T01:16:10.974Z,94.20
2018-11-05T01:18:42.554Z,94.30
2018-11-05T01:21:13.355Z,94.30
2018-11-05T01:23:44.058Z,94.30
2018-11-05T01:26:14.781Z,94.30
2018-11-05T01:28:45.519Z,94.30
2018-11-05T01:31:16.229Z,94.20
2018-11-05T01:33:46.941Z,94.10
2018-11-05T01:36:17.570Z,94.00
2018-11-05T01:38:48.272Z,93.90
2018-11-05T01:41:18.909Z,94.00
2018-11-05T01:43:49.712Z,94.00
2018-11-05T01:46:20.391Z,94.10
2018-11-05T01:48:51.156Z,94.10
2018-11-05T01:51:21.952Z,94.20
2018-11-05T01:53:52.739Z,94.30
2018-11-05T01:56:23.454Z,94.50
2018-11-05T01:58:54.408Z,94.70
2018-11-05T02:01:25.118Z,94.70
2018-11-05T02:03:55.974Z,94.60
2018-11-05T02:06:26.737Z,94.70
2018-11-05T02:08:57.587Z,94.80
2018-11-05T02:11:28.287Z,94.80
2018-11-05T02:13:59.086Z,94.90
2018-11-05T02:16:29.825Z,94.90
2018-11-05T02:19:00.517Z,95.00
2018-11-05T02:21:31.309Z,95.00
2018-11-05T02:24:02.091Z,95.00
2018-11-05T02:26:32.819Z,95.00
2018-11-05T02:29:03.631Z,95.00
2018-11-05T02:31:34.275Z,95.00
2018-11-05T02:34:05.098Z,95.10
2018-11-05T02:36:35.846Z,95.10
2018-11-05T02:39:09.803Z,95.10
2018-11-05T02:41:40.498Z,94.90
2018-11-05T02:44:11.158Z,94.90
2018-11-05T02:46:41.981Z,94.70
2018-11-05T02:49:12.654Z,94.50
2018-11-05T02:51:43.570Z,94.40
2018-11-05T02:54:14.414Z,94.40
2018-11-05T02:56:45.114Z,94.50
2018-11-05T02:59:15.882Z,94.50
2018-11-05T03:01:46.610Z,94.60
2018-11-05T03:04:17.352Z,94.70
2018-11-05T03:06:48.097Z,94.80
2018-11-05T03:09:18.822Z,94.80
2018-11-05T03:11:49.521Z,94.80
2018-11-05T03:14:20.207Z,94.90
2018-11-05T03:16:57.383Z,94.90
2018-11-05T03:19:28.102Z,95.00
2018-11-05T03:22:05.339Z,95.00
2018-11-05T03:24:36.113Z,94.90
2018-11-05T03:27:07.334Z,95.00
2018-11-05T03:29:38.128Z,95.00
2018-11-05T03:32:09.021Z,95.10
2018-11-05T03:34:39.863Z,95.10
2018-11-05T03:37:10.589Z,95.10
2018-11-05T03:39:41.347Z,95.10
2018-11-05T03:42:12.058Z,95.10
2018-11-05T03:44:42.766Z,95.00
2018-11-05T03:47:13.547Z,95.00
2018-11-05T03:49:44.299Z,94.80
2018-11-05T03:52:14.965Z,94.80
2018-11-05T03:54:45.586Z,94.90
2018-11-05T03:57:22.766Z,95.00
2018-11-05T03:59:56.385Z,95.00
2018-11-05T04:02:27.043Z,95.10
2018-11-05T04:04:57.778Z,95.10
2018-11-05T04:07:28.492Z,95.10
2018-11-05T04:09:59.145Z,95.00
2018-11-05T04:12:32.943Z,95.10
2018-11-05T04:15:10.722Z,95.10
2018-11-05T04:17:41.494Z,95.10
2018-11-05T04:20:14.315Z,95.10
2018-11-05T04:22:45.821Z,95.00
2018-11-05T04:25:16.572Z,95.00
2018-11-05T04:27:47.369Z,95.00
2018-11-05T04:30:18.187Z,95.00
2018-11-05T04:32:49.116Z,95.10
2018-11-05T04:35:19.872Z,95.20
2018-11-05T04:37:50.620Z,95.20
2018-11-05T04:40:21.454Z,95.20
2018-11-05T04:42:52.282Z,95.30
2018-11-05T04:45:23.042Z,95.40
2018-11-05T04:47:53.782Z,95.40
2018-11-05T04:50:25.328Z,95.40
2018-11-05T04:52:56.517Z,95.40
2018-11-05T04:55:27.218Z,95.50
2018-11-05T04:57:58.003Z,95.50
2018-11-05T05:00:28.811Z,95.60
2018-11-05T05:02:59.622Z,95.50
2018-11-05T05:05:30.379Z,95.50
2018-11-05T05:08:01.083Z,95.50
2018-11-05T05:10:31.771Z,95.50
2018-11-05T05:13:02.618Z,95.80
2018-11-05T05:15:33.422Z,95.50
2018-11-05T05:18:04.639Z,95.50
2018-11-05T05:20:35.347Z,95.50
2018-11-05T05:23:06.451Z,95.50
2018-11-05T05:25:36.957Z,95.50
2018-11-05T05:28:08.282Z,95.50
2018-11-05T05:30:39.137Z,95.50
2018-11-05T05:33:10.079Z,95.50
2018-11-05T05:35:40.772Z,95.50
2018-11-05T05:38:11.660Z,95.50
2018-11-05T05:40:42.482Z,95.50
2018-11-05T05:43:13.199Z,95.50
2018-11-05T05:45:43.829Z,95.50
2018-11-05T05:48:14.530Z,95.40
2018-11-05T05:50:45.286Z,95.40
2018-11-05T05:53:16.502Z,95.40
2018-11-05T05:55:47.159Z,95.50
2018-11-05T05:58:17.925Z,95.40
2018-11-05T06:00:48.566Z,95.40
2018-11-05T06:03:19.339Z,95.30
2018-11-05T06:05:50.075Z,95.40
2018-11-05T06:08:21.112Z,95.40
2018-11-05T06:10:52.044Z,95.40
2018-11-05T06:13:23.290Z,95.50
2018-11-05T06:15:54.256Z,95.50
2018-11-05T06:18:25.104Z,95.50
2018-11-05T06:20:56.025Z,95.50
2018-11-05T06:23:27.078Z,95.50
2018-11-05T06:25:57.808Z,95.50
2018-11-05T06:28:28.813Z,95.50
2018-11-05T06:31:00.535Z,95.50
2018-11-05T06:33:31.807Z,95.50
2018-11-05T06:36:02.764Z,95.40
2018-11-05T06:38:33.631Z,95.40
2018-11-05T06:41:04.508Z,95.20
2018-11-05T06:43:35.261Z,95.20
2018-11-05T06:46:06.281Z,95.20
2018-11-05T06:48:37.529Z,95.20
2018-11-05T06:51:08.311Z,95.20
2018-11-05T06:53:39.171Z,95.20
2018-11-05T06:56:09.919Z,95.20
2018-11-05T06:58:40.764Z,95.30
2018-11-05T07:01:11.718Z,95.40
2018-11-05T07:03:42.721Z,95.40
2018-11-05T07:06:13.631Z,95.40
2018-11-05T07:08:44.519Z,95.50
2018-11-05T07:11:15.435Z,95.50
2018-11-05T07:13:46.228Z,95.90
2018-11-05T07:16:17.159Z,95.70
2018-11-05T07:18:48.180Z,95.70
2018-11-05T07:21:19.148Z,95.70
2018-11-05T07:23:50.047Z,95.80
2018-11-05T07:26:20.870Z,95.80
2018-11-05T07:28:51.788Z,95.90
2018-11-05T07:31:22.635Z,95.90
2018-11-05T07:33:53.732Z,96.00
2018-11-05T07:36:24.538Z,96.10
2018-11-05T07:38:55.263Z,96.10
2018-11-05T07:41:26.140Z,96.20
2018-11-05T07:43:56.943Z,96.20
2018-11-05T07:46:27.711Z,96.30
2018-11-05T07:48:58.650Z,96.40
2018-11-05T07:51:29.491Z,96.50
2018-11-05T07:54:00.858Z,96.50
2018-11-05T07:56:31.746Z,96.50
2018-11-05T07:59:02.604Z,96.50
2018-11-05T08:01:33.710Z,96.50
2018-11-05T08:04:04.542Z,96.90
2018-11-05T08:06:35.373Z,96.70
2018-11-05T08:09:09.110Z,96.80
2018-11-05T08:11:40.263Z,96.90
2018-11-05T08:14:11.121Z,97.00
2018-11-05T08:16:41.896Z,97.00
2018-11-05T08:19:19.253Z,97.00
2018-11-05T08:21:50.053Z,97.10
2018-11-05T08:24:20.945Z,97.20
2018-11-05T08:26:51.699Z,97.50
2018-11-05T08:29:22.905Z,97.70
2018-11-05T08:31:53.761Z,97.80
2018-11-05T08:34:24.706Z,97.70
2018-11-05T08:36:55.739Z,97.60
2018-11-05T08:39:26.791Z,97.50
2018-11-05T08:41:57.606Z,97.50
2018-11-05T08:44:28.405Z,97.60
2018-11-05T08:46:59.467Z,97.60
2018-11-05T08:49:30.421Z,97.70
2018-11-05T08:52:01.242Z,97.70
2018-11-05T08:54:32.135Z,97.90
2018-11-05T08:57:02.983Z,97.90
2018-11-05T08:59:33.888Z,97.90
2018-11-05T09:02:04.739Z,97.90
2018-11-05T09:04:35.644Z,98.00
2018-11-05T09:07:06.866Z,98.00
2018-11-05T09:09:37.706Z,98.00
2018-11-05T09:12:08.708Z,98.20
2018-11-05T09:14:39.595Z,98.20
2018-11-05T09:17:10.441Z,98.20
2018-11-05T09:19:41.311Z,98.10
2018-11-05T09:22:12.295Z,98.20
2018-11-05T09:24:43.247Z,98.30
2018-11-05T09:27:14.004Z,98.30
2018-11-05T09:29:45.940Z,98.40
2018-11-05T09:32:16.900Z,98.50
2018-11-05T09:34:47.818Z,98.60
2018-11-05T09:37:18.668Z,98.80
2018-11-05T09:39:49.706Z,98.90
2018-11-05T09:42:20.722Z,99.00
2018-11-05T09:44:51.736Z,99.20
2018-11-05T09:47:22.586Z,99.00
2018-11-05T09:49:59.930Z,99.00
2018-11-05T09:52:30.835Z,98.90
2018-11-05T09:55:01.736Z,98.90
2018-11-05T09:57:32.691Z,98.90
2018-11-05T10:00:03.767Z,98.70
2018-11-05T10:02:39.652Z,98.60
2018-11-05T10:05:11.035Z,98.50
2018-11-05T10:07:41.854Z,98.90
2018-11-05T10:10:13.788Z,99.10
2018-11-05T10:12:44.739Z,99.10
2018-11-05T10:15:17.734Z,98.80
2018-11-05T10:17:48.710Z,98.70
2018-11-05T10:20:20.783Z,98.50
2018-11-05T10:22:51.647Z,98.50
2018-11-05T10:25:22.887Z,98.10
2018-11-05T10:27:54.084Z,97.90
2018-11-05T10:30:26.281Z,97.60
2018-11-05T10:32:57.109Z,97.40
2018-11-05T10:35:32.910Z,96.90
2018-11-05T10:38:03.760Z,96.60
2018-11-05T10:40:35.815Z,96.70
2018-11-05T10:43:07.373Z,96.50
2018-11-05T10:45:38.362Z,96.80
2018-11-05T10:48:09.226Z,96.10
2018-11-05T10:50:40.197Z,95.50
2018-11-05T10:53:11.144Z,95.30
2018-11-05T10:55:42.259Z,95.30
2018-11-05T10:58:13.385Z,95.30
2018-11-05T11:00:49.496Z,94.80
2018-11-05T11:03:21.208Z,94.70
2018-11-05T11:05:52.207Z,94.60
2018-11-05T11:08:23.146Z,94.20
2018-11-05T11:10:54.001Z,93.90
2018-11-05T11:13:24.824Z,93.70
2018-11-05T11:15:55.732Z,93.80
2018-11-05T11:18:29.416Z,93.90
2018-11-05T11:21:00.202Z,93.70
2018-11-05T11:23:30.959Z,93.70
2018-11-05T11:26:01.816Z,93.50
2018-11-05T11:28:32.661Z,93.30
2018-11-05T11:31:03.507Z,93.20
2018-11-05T11:33:34.310Z,93.00
2018-11-05T11:36:05.102Z,92.90
2018-11-05T11:38:35.811Z,92.60
2018-11-05T11:41:06.600Z,92.70
2018-11-05T11:43:37.297Z,92.40
2018-11-05T11:46:08.216Z,92.50
2018-11-05T11:48:38.998Z,92.40
2018-11-05T11:51:09.738Z,92.30
2018-11-05T11:53:40.474Z,92.30
2018-11-05T11:56:11.252Z,92.00
2018-11-05T11:58:48.561Z,91.80
2018-11-05T12:01:19.682Z,91.90
2018-11-05T12:03:52.851Z,92.10
2018-11-05T12:06:44.022Z,91.90
2018-11-05T12:09:16.475Z,91.70
2018-11-05T12:11:47.437Z,91.80
2018-11-05T12:14:21.580Z,91.70
2018-11-05T12:16:54.829Z,91.90
2018-11-05T12:19:29.518Z,92.00
2018-11-05T12:22:00.679Z,92.10
2018-11-05T12:24:31.682Z,92.10
2018-11-05T12:27:03.521Z,91.90
2018-11-05T12:29:34.431Z,91.40
2018-11-05T12:32:05.509Z,91.40
2018-11-05T12:34:36.590Z,91.50
2018-11-05T12:37:07.975Z,91.60
2018-11-05T12:39:39.342Z,91.70
2018-11-05T12:42:13.410Z,91.80
2018-11-05T12:44:46.308Z,91.40
2018-11-05T12:47:24.941Z,91.40
2018-11-05T12:49:56.273Z,91.50
2018-11-05T12:52:32.962Z,91.70
2018-11-05T12:55:07.296Z,91.70
2018-11-05T12:57:38.323Z,91.70
2018-11-05T13:00:20.226Z,91.60
2018-11-05T13:03:01.139Z,92.10
2018-11-05T13:05:33.186Z,91.90
2018-11-05T13:08:04.387Z,91.90
2018-11-05T13:10:35.969Z,92.10
2018-11-05T13:13:09.458Z,92.20
2018-11-05T13:15:46.130Z,92.00
2018-11-05T13:18:23.647Z,91.80
2018-11-05T13:20:55.569Z,91.70
2018-11-05T13:23:37.369Z,92.00
2018-11-05T13:26:13.711Z,92.00
2018-11-05T13:28:58.052Z,91.80
2018-11-05T13:31:34.737Z,92.00
2018-11-05T13:34:15.720Z,92.20
2018-11-05T13:37:05.873Z,92.30
2018-11-05T13:39:44.283Z,92.20
2018-11-05T13:42:21.221Z,92.20
2018-11-05T13:44:58.290Z,92.20
2018-11-05T13:53:47.782Z,91.60
2018-11-05T13:56:18.401Z,91.60
2018-11-05T13:58:50.046Z,91.70
2018-11-05T14:01:21.346Z,91.80
2018-11-05T14:03:52.478Z,92.30
2018-11-05T14:06:23.155Z,92.00
2018-11-05T14:08:53.836Z,92.00
2018-11-05T14:11:24.440Z,92.00
2018-11-05T14:13:55.255Z,92.00
2018-11-05T14:16:25.867Z,91.90
2018-11-05T15:09:31.631Z,91.50
2018-11-05T15:12:03.519Z,91.40
2018-11-05T15:14:50.637Z,91.40
2018-11-05T15:17:39.321Z,91.40
2018-11-05T15:20:13.698Z,91.40
2018-11-05T15:22:45.930Z,91.20
2018-11-05T15:25:32.575Z,91.20
2018-11-05T15:30:54.571Z,91.10
2018-11-05T15:33:59.772Z,91.10
2018-11-05T15:36:33.570Z,91.20
2018-11-05T15:39:06.570Z,91.20
2018-11-05T15:41:39.609Z,91.20
2018-11-05T15:44:31.527Z,91.20
2018-11-05T15:47:09.894Z,91.20
2018-11-05T15:49:41.180Z,91.00
2018-11-05T15:52:13.349Z,91.10
2018-11-05T15:54:43.788Z,91.10
2018-11-05T15:57:14.590Z,91.20
2018-11-05T15:59:45.598Z,91.10
2018-11-05T16:02:37.269Z,91.20
2018-11-05T16:05:10.290Z,91.20
2018-11-05T16:07:46.626Z,91.30
2018-11-05T16:13:02.190Z,91.30
2018-11-05T16:28:46.351Z,91.50
2018-11-05T16:31:17.350Z,91.70
2018-11-05T16:33:48.524Z,91.80
2018-11-05T16:36:19.440Z,91.80
2018-11-05T16:38:50.456Z,91.90
2018-11-05T16:41:21.452Z,91.90
2018-11-05T16:43:52.406Z,92.10
2018-11-05T16:46:23.540Z,92.10
2018-11-05T16:48:56.609Z,92.20
2018-11-05T16:51:28.770Z,92.20
2018-11-05T16:54:03.610Z,92.20
2018-11-05T16:56:35.496Z,92.20
2018-11-05T16:59:09.250Z,92.20
2018-11-05T17:01:42.049Z,92.30
2018-11-05T17:04:14.010Z,92.30
2018-11-05T17:06:45.083Z,92.20
2018-11-05T17:09:16.167Z,92.30
2018-11-05T17:15:03.305Z,92.30
2018-11-05T17:17:53.829Z,92.30
2018-11-05T17:24:32.770Z,92.30
2018-11-05T17:27:16.822Z,92.30
2018-11-05T17:29:57.427Z,92.40
2018-11-05T17:32:36.146Z,92.40
2018-11-05T17:35:09.147Z,92.40
2018-11-05T17:37:44.890Z,92.40
2018-11-05T17:40:22.029Z,92.40
2018-11-05T17:48:57.385Z,92.40
2018-11-05T17:55:13.930Z,92.60
2018-11-05T19:04:29.684Z,92.40
2018-11-05T19:07:02.663Z,93.20
2018-11-05T19:09:38.231Z,93.10
2018-11-05T19:12:14.278Z,93.10
2018-11-05T19:14:52.848Z,93.10
2018-11-05T19:17:26.409Z,93.20
2018-11-05T19:20:07.884Z,93.20
2018-11-05T19:22:51.181Z,93.20
2018-11-05T19:25:36.430Z,93.20
2018-11-05T19:31:19.884Z,93.20
2018-11-05T19:51:11.609Z,93.10
2018-11-05T19:53:50.170Z,93.10
2018-11-05T19:56:47.623Z,93.10
2018-11-05T20:38:28.079Z,93.90
2018-11-05T20:41:34.617Z,94.00
2018-11-05T21:14:43.063Z,93.80
2018-11-05T21:24:16.710Z,94.00
2018-11-05T21:27:06.350Z,93.90
2018-11-05T21:32:25.834Z,93.90
2018-11-05T21:34:58.543Z,94.00
2018-11-05T21:37:30.777Z,94.00
2018-11-05T21:40:02.912Z,94.00
2018-11-05T21:42:38.896Z,94.00
2018-11-05T21:45:14.256Z,94.10
2018-11-05T21:47:48.968Z,94.20
2018-11-05T21:50:22.150Z,94.30
2018-11-05T21:52:56.722Z,94.30
2018-11-05T21:55:31.645Z,94.30
2018-11-05T21:58:09.729Z,94.30
2018-11-05T22:07:43.457Z,94.50
2018-11-05T22:13:09.151Z,94.50
2018-11-05T22:15:55.958Z,94.50
2018-11-05T22:18:36.090Z,94.50
2018-11-05T22:21:09.838Z,94.50
2018-11-05T22:23:48.790Z,94.50
2018-11-05T22:29:19.110Z,94.60
2018-11-05T22:48:46.231Z,94.60
2018-11-05T22:51:19.689Z,94.60
2018-11-05T22:53:51.256Z,94.60
2018-11-05T22:56:24.629Z,94.60
2018-11-05T22:58:58.426Z,94.70
2018-11-05T23:01:34.849Z,94.60
2018-11-05T23:04:10.030Z,94.60
2018-11-05T23:20:21.549Z,94.60
